createdAt,value
2017-10-22T00:00:09.732Z,11.60
2017-10-22T00:02:37.709Z,11.70
2017-10-22T00:05:06.089Z,11.40
2017-10-22T00:07:34.057Z,11.30
2017-10-22T00:10:02.075Z,11.60
2017-10-22T00:12:30.092Z,11.70
2017-10-22T00:14:57.701Z,11.50
2017-10-22T00:17:25.265Z,12.00
2017-10-22T00:19:52.827Z,11.90
2017-10-22T00:22:20.440Z,11.80
2017-10-22T00:24:48.002Z,11.90
2017-10-22T00:27:15.593Z,12.00
2017-10-22T00:29:43.562Z,11.70
2017-10-22T00:32:11.182Z,12.10
2017-10-22T00:34:38.749Z,12.20
2017-10-22T00:37:06.306Z,12.50
2017-10-22T00:39:33.934Z,11.50
2017-10-22T00:42:01.493Z,12.70
2017-10-22T00:44:29.934Z,12.40
2017-10-22T00:46:57.898Z,12.60
2017-10-22T00:49:25.926Z,12.70
2017-10-22T00:54:22.483Z,13.00
2017-10-22T00:56:51.552Z,12.70
2017-10-22T00:59:19.518Z,12.70
2017-10-22T01:01:48.733Z,12.60
2017-10-22T01:04:16.292Z,13.10
2017-10-22T01:06:44.669Z,12.60
2017-10-22T01:09:12.232Z,12.50
2017-10-22T01:11:39.893Z,12.40
2017-10-22T01:14:07.467Z,12.60
2017-10-22T01:16:35.054Z,12.60
2017-10-22T01:19:02.670Z,12.70
2017-10-22T01:21:30.273Z,12.70
2017-10-22T01:23:57.901Z,13.20
2017-10-22T01:26:26.261Z,12.60
2017-10-22T01:28:54.230Z,12.60
2017-10-22T01:31:21.844Z,12.30
2017-10-22T01:33:49.810Z,13.00
2017-10-22T01:36:17.437Z,12.90
2017-10-22T01:38:45.030Z,12.50
2017-10-22T01:41:12.653Z,13.10
2017-10-22T01:43:40.245Z,12.60
2017-10-22T01:46:08.801Z,12.60
2017-10-22T01:48:36.727Z,12.50
2017-10-22T01:51:04.286Z,12.50
2017-10-22T01:53:32.678Z,12.60
2017-10-22T01:56:00.240Z,12.70
2017-10-22T01:58:28.288Z,12.50
2017-10-22T02:00:55.948Z,12.60
2017-10-22T02:03:23.508Z,12.40
2017-10-22T02:05:51.128Z,12.50
2017-10-22T02:08:18.703Z,12.50
2017-10-22T02:10:46.325Z,12.60
2017-10-22T02:13:13.914Z,12.70
2017-10-22T02:15:41.503Z,12.80
2017-10-22T02:18:09.077Z,12.70
2017-10-22T02:20:36.641Z,12.30
2017-10-22T02:23:04.248Z,12.80
2017-10-22T02:25:32.573Z,12.80
2017-10-22T02:28:00.949Z,12.80
2017-10-22T02:30:28.509Z,12.70
2017-10-22T02:32:56.117Z,12.80
2017-10-22T02:35:25.904Z,12.80
2017-10-22T02:37:53.543Z,13.10
2017-10-22T02:40:21.182Z,12.70
2017-10-22T02:42:48.745Z,12.70
2017-10-22T02:45:17.488Z,12.70
2017-10-22T02:47:45.053Z,15.60
2017-10-22T02:50:12.664Z,12.30
2017-10-22T02:52:40.236Z,12.60
2017-10-22T02:55:08.239Z,12.50
2017-10-22T02:57:35.801Z,12.50
2017-10-22T03:00:03.415Z,12.90
2017-10-22T03:02:30.986Z,11.80
2017-10-22T03:04:59.773Z,12.60
2017-10-22T03:07:28.109Z,12.60
2017-10-22T03:09:55.685Z,12.60
2017-10-22T03:12:23.295Z,12.00
2017-10-22T03:14:51.296Z,12.30
2017-10-22T03:17:18.897Z,12.50
2017-10-22T03:19:46.477Z,13.00
2017-10-22T03:22:14.097Z,12.10
2017-10-22T03:24:41.669Z,12.50
2017-10-22T03:27:09.294Z,12.30
2017-10-22T03:29:36.852Z,12.50
2017-10-22T03:32:04.849Z,12.10
2017-10-22T03:34:32.414Z,11.60
2017-10-22T03:37:01.181Z,12.40
2017-10-22T03:39:28.757Z,12.50
2017-10-22T03:41:56.347Z,12.40
2017-10-22T03:44:23.962Z,12.40
2017-10-22T03:46:51.536Z,12.40
2017-10-22T03:49:19.180Z,13.00
2017-10-22T03:51:46.741Z,12.20
2017-10-22T03:54:14.379Z,12.30
2017-10-22T03:56:42.001Z,11.80
2017-10-22T03:59:10.726Z,12.20
2017-10-22T04:01:39.138Z,11.90
2017-10-22T04:04:07.102Z,11.90
2017-10-22T04:06:35.186Z,11.50
2017-10-22T04:09:03.150Z,11.90
2017-10-22T04:11:31.962Z,12.10
2017-10-22T04:13:59.924Z,12.30
2017-10-22T04:16:28.614Z,12.00
2017-10-22T04:18:57.000Z,12.00
2017-10-22T04:21:24.962Z,11.90
2017-10-22T04:23:53.714Z,11.90
2017-10-22T04:26:21.274Z,11.70
2017-10-22T04:31:18.225Z,11.70
2017-10-22T04:33:46.180Z,11.40
2017-10-22T04:36:14.561Z,11.60
2017-10-22T04:38:43.264Z,11.60
2017-10-22T04:41:11.297Z,11.40
2017-10-22T04:43:39.632Z,11.20
2017-10-22T04:46:07.657Z,11.20
2017-10-22T04:48:35.990Z,11.30
2017-10-22T04:51:04.061Z,11.40
2017-10-22T04:53:32.024Z,11.40
2017-10-22T05:00:58.027Z,11.40
2017-10-22T05:03:25.993Z,11.40
2017-10-22T05:05:53.945Z,11.40
2017-10-22T05:08:23.058Z,11.30
2017-10-22T05:10:51.416Z,11.40
2017-10-22T05:13:19.043Z,11.40
2017-10-22T05:15:46.673Z,10.80
2017-10-22T05:18:14.313Z,11.40
2017-10-22T05:20:42.673Z,11.40
2017-10-22T05:23:11.070Z,11.30
2017-10-22T05:25:39.038Z,11.20
2017-10-22T05:28:07.429Z,11.20
2017-10-22T05:30:35.773Z,11.20
2017-10-22T05:33:04.124Z,11.10
2017-10-22T05:35:32.138Z,11.00
2017-10-22T05:38:01.358Z,11.00
2017-10-22T05:40:29.752Z,11.00
2017-10-22T05:42:57.320Z,11.00
2017-10-22T05:45:25.694Z,10.90
2017-10-22T05:47:53.262Z,10.80
2017-10-22T05:50:21.639Z,10.90
2017-10-22T05:52:49.226Z,10.80
2017-10-22T05:55:17.980Z,10.90
2017-10-22T05:57:45.536Z,10.40
2017-10-22T06:00:13.165Z,11.10
2017-10-22T06:02:40.770Z,10.90
2017-10-22T06:05:09.492Z,10.80
2017-10-22T06:07:37.105Z,10.90
2017-10-22T06:10:05.442Z,10.90
2017-10-22T06:12:33.090Z,11.00
2017-10-22T06:15:00.662Z,11.00
2017-10-22T06:17:28.220Z,10.60
2017-10-22T06:19:55.847Z,10.70
2017-10-22T06:22:23.405Z,11.20
2017-10-22T06:24:51.648Z,11.10
2017-10-22T06:27:19.795Z,10.90
2017-10-22T06:29:47.426Z,10.80
2017-10-22T06:32:14.986Z,10.70
2017-10-22T06:34:42.545Z,10.80
2017-10-22T06:39:39.236Z,10.40
2017-10-22T06:42:06.880Z,10.90
2017-10-22T06:44:35.360Z,10.80
2017-10-22T06:47:03.137Z,10.20
2017-10-22T06:49:30.969Z,10.40
2017-10-22T06:51:58.648Z,10.50
2017-10-22T06:54:26.371Z,10.30
2017-10-22T06:56:54.075Z,10.70
2017-10-22T06:59:21.830Z,11.10
2017-10-22T07:01:50.733Z,10.60
2017-10-22T07:04:19.401Z,11.00
2017-10-22T07:06:47.176Z,10.60
2017-10-22T07:09:14.952Z,10.70
2017-10-22T07:14:12.240Z,10.70
2017-10-22T07:16:39.929Z,10.70
2017-10-22T07:19:08.524Z,10.60
2017-10-22T07:21:36.216Z,13.30
2017-10-22T07:24:03.862Z,10.60
2017-10-22T07:26:31.711Z,10.60
2017-10-22T07:28:59.588Z,10.60
2017-10-22T07:31:28.065Z,10.60
2017-10-22T07:33:55.820Z,10.60
2017-10-22T07:36:23.463Z,10.60
2017-10-22T07:38:51.039Z,10.70
2017-10-22T07:41:18.652Z,11.20
2017-10-22T07:43:46.462Z,10.80
2017-10-22T07:46:14.147Z,10.80
2017-10-22T07:48:41.786Z,10.80
2017-10-22T07:51:10.179Z,12.00
2017-10-22T07:53:38.212Z,10.90
2017-10-22T07:56:05.832Z,10.70
2017-10-22T07:58:33.402Z,11.10
2017-10-22T08:01:01.059Z,10.90
2017-10-22T08:03:28.624Z,13.10
2017-10-22T08:05:56.225Z,10.90
2017-10-22T08:08:24.296Z,11.20
2017-10-22T08:10:51.855Z,10.90
2017-10-22T08:13:20.591Z,10.90
2017-10-22T08:15:49.530Z,11.00
2017-10-22T08:18:17.344Z,11.20
2017-10-22T08:20:45.074Z,11.60
2017-10-22T08:23:12.928Z,11.20
2017-10-22T08:25:40.613Z,9.00
2017-10-22T08:28:08.289Z,12.00
2017-10-22T08:30:36.054Z,11.50
2017-10-22T08:33:03.795Z,12.10
2017-10-22T08:35:32.006Z,11.70
2017-10-22T08:38:00.114Z,11.80
2017-10-22T08:40:27.858Z,11.60
2017-10-22T08:42:55.784Z,11.50
2017-10-22T08:45:23.999Z,11.60
2017-10-22T08:47:52.404Z,11.90
2017-10-22T08:50:20.073Z,11.80
2017-10-22T08:52:47.800Z,11.70
2017-10-22T08:55:16.630Z,11.80
2017-10-22T08:57:44.386Z,11.80
2017-10-22T09:00:12.153Z,12.00
2017-10-22T09:02:39.925Z,12.40
2017-10-22T09:05:08.481Z,12.00
2017-10-22T09:07:36.262Z,12.20
2017-10-22T09:10:04.054Z,12.30
2017-10-22T09:12:31.763Z,12.30
2017-10-22T09:14:59.481Z,12.60
2017-10-22T09:17:27.232Z,12.90
2017-10-22T09:19:54.906Z,13.00
2017-10-22T09:22:22.521Z,12.80
2017-10-22T09:24:50.191Z,12.90
2017-10-22T09:27:17.963Z,12.70
2017-10-22T09:29:45.836Z,12.80
2017-10-22T09:32:13.663Z,12.60
2017-10-22T09:34:41.534Z,12.70
2017-10-22T09:37:09.244Z,13.10
2017-10-22T09:39:36.917Z,13.40
2017-10-22T09:42:04.595Z,13.30
2017-10-22T09:44:32.277Z,13.60
2017-10-22T09:46:59.934Z,13.90
2017-10-22T09:49:27.759Z,13.80
2017-10-22T09:51:55.384Z,13.90
2017-10-22T09:54:23.074Z,13.70
2017-10-22T09:56:50.765Z,14.10
2017-10-22T09:59:18.526Z,14.10
2017-10-22T10:01:46.243Z,14.10
2017-10-22T10:04:14.069Z,13.80
2017-10-22T10:06:41.744Z,13.90
2017-10-22T10:09:09.506Z,14.00
2017-10-22T10:11:37.675Z,14.90
2017-10-22T10:14:05.433Z,15.40
2017-10-22T10:16:33.482Z,15.70
2017-10-22T10:19:01.089Z,16.90
2017-10-22T10:21:28.991Z,16.90
2017-10-22T10:23:56.845Z,17.00
2017-10-22T10:26:24.618Z,16.50
2017-10-22T10:28:52.889Z,16.40
2017-10-22T10:31:20.695Z,15.40
2017-10-22T10:33:48.512Z,14.70
2017-10-22T10:38:45.934Z,13.90
2017-10-22T10:41:14.058Z,13.60
2017-10-22T10:43:42.798Z,13.50
2017-10-22T10:46:11.077Z,13.90
2017-10-22T10:48:38.865Z,14.10
2017-10-22T10:51:06.803Z,14.30
2017-10-22T10:53:34.802Z,14.40
2017-10-22T10:56:02.955Z,14.00
2017-10-22T10:58:31.145Z,13.80
2017-10-22T11:00:59.690Z,13.70
2017-10-22T11:03:27.373Z,13.90
2017-10-22T11:05:55.162Z,13.80
2017-10-22T11:08:22.991Z,13.40
2017-10-22T11:10:50.996Z,13.30
2017-10-22T11:13:18.933Z,12.90
2017-10-22T11:15:46.715Z,12.80
2017-10-22T11:18:14.457Z,12.60
2017-10-22T11:20:42.231Z,12.30
2017-10-22T11:23:10.695Z,12.20
2017-10-22T11:25:39.021Z,12.20
2017-10-22T11:28:06.946Z,12.10
2017-10-22T11:30:34.785Z,12.10
2017-10-22T11:33:02.707Z,12.50
2017-10-22T11:37:59.731Z,13.10
2017-10-22T11:40:28.211Z,13.20
2017-10-22T11:42:55.961Z,13.40
2017-10-22T11:45:24.084Z,13.10
2017-10-22T11:47:51.786Z,12.80
2017-10-22T11:50:19.639Z,12.70
2017-10-22T11:52:47.326Z,12.70
2017-10-22T11:55:15.792Z,12.60
2017-10-22T11:57:43.509Z,12.40
2017-10-22T12:00:11.205Z,12.50
2017-10-22T12:02:38.946Z,12.60
2017-10-22T12:05:06.652Z,12.60
2017-10-22T12:07:34.641Z,12.50
2017-10-22T12:10:02.459Z,12.30
2017-10-22T12:12:30.225Z,11.90
2017-10-22T12:14:58.046Z,11.80
2017-10-22T12:17:25.966Z,11.80
2017-10-22T12:19:53.856Z,11.70
2017-10-22T12:22:21.596Z,11.70
2017-10-22T12:24:49.326Z,11.60
2017-10-22T12:27:17.386Z,12.00
2017-10-22T12:29:45.073Z,12.30
2017-10-22T12:32:12.757Z,12.50
2017-10-22T12:34:40.465Z,12.30
2017-10-22T12:37:08.306Z,12.30
2017-10-22T12:39:36.407Z,12.50
2017-10-22T12:42:04.225Z,12.60
2017-10-22T12:44:32.081Z,12.30
2017-10-22T12:47:00.685Z,12.50
2017-10-22T12:49:28.761Z,12.70
2017-10-22T12:51:56.645Z,12.70
2017-10-22T12:54:25.273Z,12.70
2017-10-22T12:56:53.068Z,12.90
2017-10-22T12:59:20.933Z,13.00
2017-10-22T13:01:49.528Z,13.20
2017-10-22T13:04:17.314Z,13.30
2017-10-22T13:06:45.548Z,13.60
2017-10-22T13:09:13.340Z,13.80
2017-10-22T13:11:41.959Z,13.90
2017-10-22T13:14:10.167Z,13.80
2017-10-22T13:16:38.099Z,13.50
2017-10-22T13:19:06.647Z,13.50
2017-10-22T13:21:35.125Z,13.70
2017-10-22T13:24:03.102Z,13.40
2017-10-22T13:26:31.870Z,13.40
2017-10-22T13:28:59.855Z,13.10
2017-10-22T13:31:28.103Z,13.00
2017-10-22T13:33:56.230Z,12.80
2017-10-22T13:36:23.916Z,12.50
2017-10-22T13:41:20.789Z,12.10
2017-10-22T13:43:48.990Z,12.20
2017-10-22T13:46:16.953Z,12.00
2017-10-22T13:48:45.629Z,11.80
2017-10-22T13:51:13.494Z,11.70
2017-10-22T13:53:41.333Z,11.90
2017-10-22T13:56:09.905Z,12.00
2017-10-22T13:58:37.727Z,12.20
2017-10-22T14:01:05.975Z,12.40
2017-10-22T14:03:34.300Z,12.80
2017-10-22T14:06:02.124Z,13.00
2017-10-22T14:08:29.954Z,13.30
2017-10-22T14:10:57.739Z,14.20
2017-10-22T14:13:25.454Z,14.30
2017-10-22T14:15:53.525Z,14.60
2017-10-22T14:18:21.476Z,14.30
2017-10-22T14:20:49.376Z,14.20
2017-10-22T14:23:17.244Z,14.30
2017-10-22T14:25:45.131Z,14.10
2017-10-22T14:28:12.987Z,14.00
2017-10-22T14:30:40.749Z,13.70
2017-10-22T14:33:08.514Z,13.40
2017-10-22T14:35:37.114Z,13.00
2017-10-22T14:38:04.937Z,12.50
2017-10-22T14:40:32.753Z,12.20
2017-10-22T14:43:00.603Z,11.90
2017-10-22T14:47:57.521Z,11.20
2017-10-22T14:50:25.289Z,11.10
2017-10-22T14:52:54.040Z,11.40
2017-10-22T14:55:21.727Z,11.70
2017-10-22T14:57:49.600Z,12.10
2017-10-22T15:00:17.471Z,12.90
2017-10-22T15:02:45.371Z,13.20
2017-10-22T15:05:13.244Z,13.80
2017-10-22T15:07:41.518Z,13.90
2017-10-22T15:10:09.331Z,13.70
2017-10-22T15:12:37.411Z,13.60
2017-10-22T15:15:05.385Z,13.50
2017-10-22T15:17:33.304Z,13.30
2017-10-22T15:20:01.121Z,13.10
2017-10-22T15:22:28.937Z,12.50
2017-10-22T15:24:56.882Z,12.30
2017-10-22T15:27:24.694Z,12.40
2017-10-22T15:29:52.458Z,12.20
2017-10-22T15:32:20.360Z,11.40
2017-10-22T15:34:48.330Z,11.20
2017-10-22T15:37:16.637Z,11.00
2017-10-22T15:39:44.588Z,10.80
2017-10-22T15:42:12.346Z,10.90
2017-10-22T15:44:40.126Z,11.10
2017-10-22T15:47:09.082Z,11.20
2017-10-22T15:49:36.814Z,11.50
2017-10-22T15:52:04.625Z,11.60
2017-10-22T15:54:32.285Z,11.20
2017-10-22T15:57:00.750Z,11.10
2017-10-22T15:59:29.226Z,11.30
2017-10-22T16:01:58.140Z,11.00
2017-10-22T16:04:25.888Z,10.90
2017-10-22T16:06:53.656Z,11.00
2017-10-22T16:09:21.311Z,10.90
2017-10-22T16:11:49.035Z,10.70
2017-10-22T16:14:16.742Z,10.50
2017-10-22T16:19:13.585Z,10.00
2017-10-22T16:21:41.461Z,9.90
2017-10-22T16:24:09.209Z,9.20
2017-10-22T16:26:37.048Z,9.40
2017-10-22T16:29:05.760Z,9.30
2017-10-22T16:31:34.117Z,9.00
2017-10-22T16:34:03.615Z,9.40
2017-10-22T16:36:32.017Z,9.20
2017-10-22T16:38:59.797Z,9.40
2017-10-22T16:41:27.465Z,9.40
2017-10-22T16:43:55.134Z,9.10
2017-10-22T16:46:22.952Z,9.00
2017-10-22T16:48:50.643Z,9.40
2017-10-22T16:51:18.495Z,9.30
2017-10-22T16:53:46.541Z,9.40
2017-10-22T16:56:14.645Z,9.50
2017-10-22T16:58:42.456Z,9.40
2017-10-22T17:01:11.592Z,9.60
2017-10-22T17:03:39.540Z,9.80
2017-10-22T17:06:07.218Z,9.70
2017-10-22T17:08:35.003Z,9.40
2017-10-22T17:11:13.499Z,9.40
2017-10-22T17:13:41.707Z,9.40
2017-10-22T17:16:09.369Z,9.70
2017-10-22T17:18:38.652Z,9.80
2017-10-22T17:21:07.455Z,9.80
2017-10-22T17:23:36.793Z,9.90
2017-10-22T17:26:04.585Z,9.90
2017-10-22T17:28:32.759Z,9.80
2017-10-22T17:31:00.464Z,10.30
2017-10-22T17:33:28.196Z,9.70
2017-10-22T17:35:55.944Z,9.80
2017-10-22T17:38:23.597Z,9.70
2017-10-22T17:40:52.179Z,9.50
2017-10-22T17:43:19.977Z,9.50
2017-10-22T17:45:49.323Z,9.50
2017-10-22T17:48:18.180Z,9.40
2017-10-22T17:50:45.909Z,10.10
2017-10-22T17:53:13.580Z,9.00
2017-10-22T17:55:41.344Z,9.60
2017-10-22T17:58:09.896Z,9.70
2017-10-22T18:00:38.411Z,9.70
2017-10-22T18:03:06.069Z,9.50
2017-10-22T18:05:34.136Z,9.40
2017-10-22T18:10:30.901Z,9.60
2017-10-22T18:12:58.737Z,9.20
2017-10-22T18:15:26.388Z,9.50
2017-10-22T18:17:54.215Z,9.70
2017-10-22T18:20:21.826Z,9.40
2017-10-22T18:22:49.565Z,9.90
2017-10-22T18:25:18.073Z,9.80
2017-10-22T18:27:45.735Z,9.80
2017-10-22T18:30:13.508Z,10.00
2017-10-22T18:32:42.365Z,9.60
2017-10-22T18:35:10.381Z,9.50
2017-10-22T18:37:38.028Z,9.70
2017-10-22T18:40:05.888Z,9.30
2017-10-22T18:42:33.569Z,10.00
2017-10-22T18:45:01.298Z,9.20
2017-10-22T18:47:29.713Z,9.60
2017-10-22T18:49:57.466Z,9.40
2017-10-22T18:52:25.147Z,9.50
2017-10-22T18:54:53.249Z,9.60
2017-10-22T18:57:20.931Z,9.10
2017-10-22T18:59:48.593Z,9.30
2017-10-22T19:02:16.352Z,9.30
2017-10-22T19:04:45.189Z,9.10
2017-10-22T19:07:14.029Z,9.10
2017-10-22T19:09:42.917Z,9.20
2017-10-22T19:12:10.721Z,9.00
2017-10-22T19:14:38.854Z,9.20
2017-10-22T19:17:06.647Z,9.20
2017-10-22T19:19:34.421Z,9.40
2017-10-22T19:22:02.368Z,9.20
2017-10-22T19:24:30.521Z,9.70
2017-10-22T19:26:59.289Z,9.30
2017-10-22T19:29:27.065Z,9.50
2017-10-22T19:31:55.547Z,9.30
2017-10-22T19:34:23.345Z,9.50
2017-10-22T19:36:51.901Z,9.20
2017-10-22T19:39:20.590Z,9.10
2017-10-22T19:41:48.658Z,9.10
2017-10-22T19:44:16.929Z,10.00
2017-10-22T19:46:46.533Z,9.00
2017-10-22T19:49:14.225Z,9.20
2017-10-22T19:51:42.746Z,8.90
2017-10-22T19:54:10.824Z,8.70
2017-10-22T19:56:38.968Z,8.90
2017-10-22T19:59:07.776Z,8.90
2017-10-22T20:01:36.156Z,8.90
2017-10-22T20:04:05.181Z,9.00
2017-10-22T20:09:02.515Z,8.80
2017-10-22T20:11:31.017Z,8.70
2017-10-22T20:13:59.986Z,8.70
2017-10-22T20:16:28.029Z,8.80
2017-10-22T20:18:56.585Z,8.70
2017-10-22T20:21:24.780Z,8.70
2017-10-22T20:23:52.944Z,8.60
2017-10-22T20:26:21.684Z,8.60
2017-10-22T20:28:50.780Z,8.60
2017-10-22T20:31:20.626Z,8.60
2017-10-22T20:33:49.137Z,8.50
2017-10-22T20:38:46.258Z,8.60
2017-10-22T20:41:14.729Z,8.70
2017-10-22T20:43:42.870Z,8.70
2017-10-22T20:46:11.279Z,8.70
2017-10-22T20:48:40.137Z,8.70
2017-10-22T20:51:08.561Z,8.70
2017-10-22T20:53:37.423Z,8.60
2017-10-22T20:56:06.211Z,8.60
2017-10-22T20:58:34.708Z,8.60
2017-10-22T21:01:03.173Z,8.70
2017-10-22T21:03:32.126Z,8.70
2017-10-22T21:06:00.689Z,8.70
2017-10-22T21:08:29.214Z,8.70
2017-10-22T21:10:57.275Z,8.90
2017-10-22T21:13:26.401Z,8.80
2017-10-22T21:15:54.543Z,8.70
2017-10-22T21:18:22.644Z,8.70
2017-10-22T21:20:51.134Z,8.80
2017-10-22T21:23:19.225Z,8.90
2017-10-22T21:25:48.176Z,8.70
2017-10-22T21:28:16.653Z,8.70
2017-10-22T21:30:44.834Z,8.70
2017-10-22T21:33:12.923Z,8.60
2017-10-22T21:35:41.480Z,8.70
2017-10-22T21:38:10.022Z,8.70
2017-10-22T21:40:38.437Z,8.60
2017-10-22T21:43:07.284Z,8.60
2017-10-22T21:45:36.037Z,8.60
2017-10-22T21:48:04.626Z,8.70
2017-10-22T21:50:33.323Z,8.70
2017-10-22T21:53:02.022Z,8.70
2017-10-22T21:55:31.269Z,8.70
2017-10-22T21:58:00.161Z,8.70
2017-10-22T22:00:29.021Z,8.80
2017-10-22T22:02:57.785Z,8.60
2017-10-22T22:10:24.413Z,9.00
2017-10-22T22:12:52.603Z,8.70
2017-10-22T22:15:21.053Z,8.80
2017-10-22T22:17:49.555Z,10.20
2017-10-22T22:20:17.634Z,8.90
2017-10-22T22:22:46.849Z,8.90
2017-10-22T22:25:14.932Z,9.20
2017-10-22T22:27:42.731Z,9.60
2017-10-22T22:30:11.597Z,9.10
2017-10-22T22:32:40.185Z,9.20
2017-10-22T22:35:08.269Z,9.40
2017-10-22T22:37:36.805Z,9.10
2017-10-22T22:40:05.352Z,9.10
2017-10-22T22:42:34.054Z,9.20
2017-10-22T22:45:02.170Z,9.10
2017-10-22T22:47:30.649Z,9.10
2017-10-22T22:49:59.097Z,9.00
2017-10-22T22:52:27.146Z,9.10
2017-10-22T22:54:55.300Z,9.10
2017-10-22T22:57:23.405Z,8.70
2017-10-22T22:59:51.566Z,9.10
2017-10-22T23:02:20.120Z,9.10
2017-10-22T23:04:47.901Z,9.20
2017-10-22T23:07:15.661Z,9.60
2017-10-22T23:09:43.818Z,9.30
2017-10-22T23:12:12.329Z,9.10
2017-10-22T23:14:40.547Z,8.90
2017-10-22T23:17:08.685Z,8.80
2017-10-22T23:19:37.241Z,8.80
2017-10-22T23:22:06.525Z,8.90
2017-10-22T23:24:34.725Z,8.90
2017-10-22T23:27:02.905Z,8.50
2017-10-22T23:29:31.176Z,8.90
2017-10-22T23:32:00.114Z,9.00
2017-10-22T23:34:28.632Z,9.10
2017-10-22T23:36:57.172Z,9.10
2017-10-22T23:39:25.314Z,8.70
2017-10-22T23:41:53.799Z,8.80
2017-10-22T23:44:22.354Z,8.80
2017-10-22T23:46:50.517Z,8.90
2017-10-22T23:49:19.086Z,8.90
2017-10-22T23:51:47.698Z,8.90
2017-10-22T23:54:16.494Z,8.90
2017-10-22T23:56:45.129Z,9.00
2017-10-22T23:59:13.561Z,8.80
